Time;durP1;ratioP1;P1;durP2;ratioP2;P2;SDS_P1;SDS_P2;PMS_P1;PMS_P2;Temp;Humidity;BMP_temperature;BMP_pressure;BME280_temperature;BME280_humidity;BME280_pressure;Samples;Min_cycle;Max_cycle;Signal;HPM_P1;HPM_P2
2021/06/22 00:00:14;;;;;;;;;;;;;;;19.63;66.55;96712.52;1676895;85;20133;-84
2021/06/22 00:02:44;;;;;;;;;;;;;;;19.58;67.54;96716.29;1698443;84;20094;-79
2021/06/22 00:05:11;;;;;;;;;;;;;;;19.51;66.77;96712.20;1705676;83;20102;-80
2021/06/22 00:07:37;;;;;;;;;;;;;;;19.45;68.28;96719.62;1703748;84;20113;-79
2021/06/22 00:10:05;;;;;;;;;;;;;;;19.39;67.45;96723.05;1705775;84;20106;-81
2021/06/22 00:12:31;;;;;;;;;;;;;;;19.34;66.57;96728.97;1684636;83;20144;-79
2021/06/22 00:14:58;;;;;;;;;;;;;;;19.30;67.46;96726.36;1677429;85;20108;-81
2021/06/22 00:17:24;;;;;;;;;;;;;;;19.24;67.77;96723.93;1702322;84;20094;-78
2021/06/22 00:19:50;;;;;;;;;;;;;;;19.19;67.19;96719.64;1705094;84;20170;-81
2021/06/22 00:22:16;;;;;;;;;;;;;;;19.15;68.03;96719.70;1703570;84;20122;-81
2021/06/22 00:24:42;;;;;;;;;;;;;;;19.10;67.10;96724.77;1705607;84;20090;-82
2021/06/22 00:27:12;;;;;;;;;;;;;;;19.06;67.55;96724.84;1706258;83;20102;-83
2021/06/22 00:29:39;;;;;;;;;;;;;;;19.01;67.50;96730.73;1705704;83;20105;-81
2021/06/22 00:32:06;;;;;;;;;;;;;;;18.97;65.01;96726.27;1705736;83;20134;-79
2021/06/22 00:34:34;;;;;;;;;;;;;;;18.92;67.30;96726.47;1703364;83;20168;-78
2021/06/22 00:37:00;;;;;;;;;;;;;;;18.87;67.92;96723.84;1702215;84;20166;-83
2021/06/22 00:39:26;;;;;;;;;;;;;;;18.82;68.44;96720.91;1705804;83;20105;-79
2021/06/22 00:41:53;;;;;;;;;;;;;;;18.79;67.90;96724.45;1701410;83;20132;-79
2021/06/22 00:44:19;;;;;;;;;;;;;;;18.75;68.18;96728.49;1683300;83;20450;-81
2021/06/22 00:46:46;;;;;;;;;;;;;;;18.68;68.71;96730.58;1678206;84;20128;-82
2021/06/22 00:49:12;;;;;;;;;;;;;;;18.65;68.83;96723.44;1698491;84;20391;-81
2021/06/22 00:51:40;;;;;;;;;;;;;;;18.61;68.79;96719.47;1699662;83;20429;-80
2021/06/22 00:54:09;;;;;;;;;;;;;;;18.59;68.89;96721.00;1672358;85;20155;-84
2021/06/22 00:56:37;;;;;;;;;;;;;;;18.56;68.86;96725.36;1694732;85;20139;-82
2021/06/22 00:59:03;;;;;;;;;;;;;;;18.54;68.71;96723.37;1694921;85;20131;-81
2021/06/22 01:01:30;;;;;;;;;;;;;;;18.52;68.41;96713.38;1695886;84;20209;-78
2021/06/22 01:03:56;;;;;;;;;;;;;;;18.52;69.16;96714.70;1674885;85;20151;-78
2021/06/22 01:06:23;;;;;;;;;;;;;;;18.50;67.78;96713.56;1697727;84;20154;-79
2021/06/22 01:08:51;;;;;;;;;;;;;;;18.49;70.38;96712.42;1693891;84;20158;-85
2021/06/22 01:11:17;;;;;;;;;;;;;;;18.45;69.10;96714.64;1698129;85;20139;-80
2021/06/22 01:13:44;;;;;;;;;;;;;;;18.42;69.10;96725.14;1697770;84;20152;-77
2021/06/22 01:16:26;;;;;;;;;;;;;;;18.39;69.35;96721.53;1699345;84;20131;-83
2021/06/22 01:19:00;;;;;;;;;;;;;;;18.37;69.56;96724.06;1699248;84;20241;-84
2021/06/22 01:21:30;;;;;;;;;;;;;;;18.32;69.12;96725.94;1699434;84;20431;-84
2021/06/22 01:24:13;;;;;;;;;;;;;;;18.30;69.09;96722.61;1699905;84;20448;-84
2021/06/22 01:26:46;;;;;;;;;;;;;;;18.28;69.40;96719.30;1715740;83;20101;-80
2021/06/22 01:29:12;;;;;;;;;;;;;;;18.26;69.07;96716.81;1714743;84;20407;-84
2021/06/22 01:31:39;;;;;;;;;;;;;;;18.25;69.17;96707.16;1701148;83;20104;-86
2021/06/22 01:34:06;;;;;;;;;;;;;;;18.28;69.13;96711.81;1697721;84;20129;-85
2021/06/22 01:36:35;;;;;;;;;;;;;;;18.29;67.82;96704.10;1715889;84;20113;-85
2021/06/22 01:39:04;;;;;;;;;;;;;;;18.27;68.25;96698.96;1702794;83;20392;-86
2021/06/22 01:41:31;;;;;;;;;;;;;;;18.32;68.44;96695.75;1697416;84;20402;-81
2021/06/22 01:43:59;;;;;;;;;;;;;;;18.37;68.55;96696.05;1716141;83;20138;-81
2021/06/22 01:46:25;;;;;;;;;;;;;;;18.40;69.44;96686.32;1715717;84;20105;-78
2021/06/22 01:48:51;;;;;;;;;;;;;;;18.42;68.78;96679.78;1716011;83;20184;-79
2021/06/22 01:51:18;;;;;;;;;;;;;;;18.47;68.87;96674.41;1716498;82;20114;-82
2021/06/22 01:53:56;;;;;;;;;;;;;;;18.51;69.01;96671.72;1733765;82;20124;-85
2021/06/22 01:56:26;;;;;;;;;;;;;;;18.57;69.82;96666.97;1744186;82;20111;-79
2021/06/22 01:58:53;;;;;;;;;;;;;;;18.63;69.20;96670.22;1709594;83;20128;-77
2021/06/22 02:01:28;;;;;;;;;;;;;;;18.66;69.07;96669.86;1676529;85;20115;-78
2021/06/22 02:03:57;;;;;;;;;;;;;;;18.70;69.39;96670.32;1686746;85;20103;-83
2021/06/22 02:06:24;;;;;;;;;;;;;;;18.72;68.27;96664.30;1711506;84;20129;-78
2021/06/22 02:08:55;;;;;;;;;;;;;;;18.72;69.42;96659.77;1712800;83;20379;-79
2021/06/22 02:11:22;;;;;;;;;;;;;;;18.75;69.35;96659.08;1691943;83;20395;-80
2021/06/22 02:13:49;;;;;;;;;;;;;;;18.77;69.81;96661.06;1716136;84;20121;-85
2021/06/22 02:16:18;;;;;;;;;;;;;;;18.80;69.87;96660.67;1715775;83;20109;-79
2021/06/22 02:18:45;;;;;;;;;;;;;;;18.83;69.57;96663.83;1692132;84;20399;-84
2021/06/22 02:21:12;;;;;;;;;;;;;;;18.85;69.83;96668.97;1716208;84;20498;-86
2021/06/22 02:23:39;;;;;;;;;;;;;;;18.85;68.82;96666.30;1716203;84;20117;-79
2021/06/22 02:26:06;;;;;;;;;;;;;;;18.81;69.24;96661.84;1685292;84;20164;-81
2021/06/22 02:28:33;;;;;;;;;;;;;;;18.82;69.49;96662.66;1695935;84;20137;-83
2021/06/22 02:31:01;;;;;;;;;;;;;;;18.83;69.84;96670.99;1697162;84;20112;-79
2021/06/22 02:33:29;;;;;;;;;;;;;;;18.81;71.22;96676.53;1697112;84;20093;-86
2021/06/22 02:35:55;;;;;;;;;;;;;;;18.78;69.93;96680.08;1682849;84;20125;-78
2021/06/22 02:38:23;;;;;;;;;;;;;;;18.77;69.07;96678.42;1716078;83;20126;-80
2021/06/22 02:40:51;;;;;;;;;;;;;;;18.77;69.52;96686.43;1707869;84;20159;-79
2021/06/22 02:43:19;;;;;;;;;;;;;;;18.78;69.29;96684.90;1701156;84;20126;-80
2021/06/22 02:45:47;;;;;;;;;;;;;;;18.79;69.35;96691.90;1675324;85;20103;-85
2021/06/22 02:48:15;;;;;;;;;;;;;;;18.79;69.81;96687.89;1687398;85;20100;-80
2021/06/22 02:50:43;;;;;;;;;;;;;;;18.80;69.50;96690.89;1695835;84;20185;-79
2021/06/22 02:53:11;;;;;;;;;;;;;;;18.81;68.94;96689.88;1688083;84;20392;-81
2021/06/22 02:55:39;;;;;;;;;;;;;;;18.82;69.23;96693.36;1687778;84;20084;-83
2021/06/22 02:58:07;;;;;;;;;;;;;;;18.84;68.66;96694.02;1696733;84;20105;-78
2021/06/22 03:00:33;;;;;;;;;;;;;;;18.85;69.01;96694.34;1706748;83;20118;-84
2021/06/22 03:03:03;;;;;;;;;;;;;;;18.85;69.05;96699.16;1707699;83;20091;-78
2021/06/22 03:05:29;;;;;;;;;;;;;;;18.86;68.70;96710.16;1705248;84;20420;-80
2021/06/22 03:07:56;;;;;;;;;;;;;;;18.91;68.88;96716.28;1687708;85;20179;-79
2021/06/22 03:10:24;;;;;;;;;;;;;;;18.97;69.20;96723.60;1687884;84;20223;-80
2021/06/22 03:12:52;;;;;;;;;;;;;;;18.99;69.04;96721.55;1691288;84;20105;-81
2021/06/22 03:15:25;;;;;;;;;;;;;;;19.02;68.06;96728.39;1707193;84;20108;-79
2021/06/22 03:17:53;;;;;;;;;;;;;;;18.99;68.73;96732.23;1711743;84;20414;-83
2021/06/22 03:20:21;;;;;;;;;;;;;;;19.02;69.29;96731.87;1716225;84;20109;-78
2021/06/22 03:22:48;;;;;;;;;;;;;;;19.07;69.72;96737.17;1716366;83;20382;-84
2021/06/22 03:25:15;;;;;;;;;;;;;;;19.11;69.32;96734.44;1712531;84;20449;-82
2021/06/22 03:27:45;;;;;;;;;;;;;;;19.14;69.36;96733.55;1703830;83;20168;-80
2021/06/22 03:30:28;;;;;;;;;;;;;;;19.17;69.45;96728.34;1702992;84;20160;-78
2021/06/22 03:32:55;;;;;;;;;;;;;;;19.21;69.44;96726.15;1715436;82;20129;-81
2021/06/22 03:35:21;;;;;;;;;;;;;;;19.24;69.46;96727.94;1689565;82;20100;-85
2021/06/22 03:37:47;;;;;;;;;;;;;;;19.27;69.58;96728.88;1694060;84;20398;-81
2021/06/22 03:40:14;;;;;;;;;;;;;;;19.31;69.12;96742.69;1715746;84;20422;-77
2021/06/22 03:42:43;;;;;;;;;;;;;;;19.34;69.37;96739.16;1713346;84;20106;-84
2021/06/22 03:45:10;;;;;;;;;;;;;;;19.40;69.20;96738.89;1691117;84;20386;-79
2021/06/22 03:47:38;;;;;;;;;;;;;;;19.46;69.14;96739.50;1692956;82;20150;-83
2021/06/22 03:50:06;;;;;;;;;;;;;;;19.53;68.55;96742.25;1675783;85;20128;-84
2021/06/22 03:52:34;;;;;;;;;;;;;;;19.71;68.48;96745.00;1679181;84;20108;-84
2021/06/22 03:55:01;;;;;;;;;;;;;;;20.08;67.99;96753.83;1688020;85;20144;-85
2021/06/22 03:57:28;;;;;;;;;;;;;;;20.62;68.07;96752.91;1688071;84;20100;-79
2021/06/22 03:59:56;;;;;;;;;;;;;;;;;;1699076;82;20093;-85
2021/06/22 04:02:22;;;;;;;;;;;;;;;21.84;66.09;96741.21;1702772;83;20096;-84
2021/06/22 04:04:48;;;;;;;;;;;;;;;22.40;64.89;96742.75;1663838;84;20161;-81
2021/06/22 04:07:18;;;;;;;;;;;;;;;22.96;63.03;96743.78;1705014;82;20106;-84
2021/06/22 04:09:44;;;;;;;;;;;;;;;23.53;59.98;96744.00;1713810;84;20101;-82
2021/06/22 04:12:11;;;;;;;;;;;;;;;24.12;60.12;96750.11;1715283;83;20109;-79
2021/06/22 04:14:38;;;;;;;;;;;;;;;24.74;58.80;96751.26;1715192;83;20106;-82
2021/06/22 04:17:07;;;;;;;;;;;;;;;25.14;58.73;96750.84;1678522;84;20140;-81
2021/06/22 04:19:34;;;;;;;;;;;;;;;25.21;56.40;96749.43;1686947;84;20417;-82
2021/06/22 04:22:02;;;;;;;;;;;;;;;25.36;55.59;96754.45;1686880;83;20461;-79
2021/06/22 04:24:30;;;;;;;;;;;;;;;25.61;52.38;96751.67;1686100;85;20131;-85
2021/06/22 04:26:57;;;;;;;;;;;;;;;25.87;52.50;96757.21;1687703;84;20100;-81
2021/06/22 04:29:23;;;;;;;;;;;;;;;26.18;56.02;96759.39;1699979;84;20101;-82
2021/06/22 04:31:49;;;;;;;;;;;;;;;26.37;53.54;96762.01;1712015;82;20113;-81
2021/06/22 04:34:15;;;;;;;;;;;;;;;26.28;51.57;96762.86;1715427;84;20110;-81
2021/06/22 04:36:43;;;;;;;;;;;;;;;26.65;51.45;96763.21;1704159;82;20133;-82
2021/06/22 04:39:09;;;;;;;;;;;;;;;27.08;53.43;96762.58;1686762;84;20155;-85
2021/06/22 04:41:35;;;;;;;;;;;;;;;27.05;48.42;96749.52;1704687;84;20157;-84
2021/06/22 04:44:03;;;;;;;;;;;;;;;27.14;47.59;96741.33;1715318;84;20113;-81
2021/06/22 04:46:30;;;;;;;;;;;;;;;26.89;48.29;96738.89;1700563;84;20100;-85
2021/06/22 04:48:56;;;;;;;;;;;;;;;26.71;49.39;96737.13;1715396;83;20110;-82
2021/06/22 04:51:24;;;;;;;;;;;;;;;26.74;49.53;96740.17;1715558;83;20431;-81
2021/06/22 04:53:50;;;;;;;;;;;;;;;26.63;49.49;96742.34;1715608;83;20138;-80
2021/06/22 04:56:19;;;;;;;;;;;;;;;27.07;48.01;96749.56;1695024;83;20112;-83
2021/06/22 04:58:45;;;;;;;;;;;;;;;27.15;48.68;96753.80;1660433;85;20166;-79
2021/06/22 05:01:11;;;;;;;;;;;;;;;27.74;48.13;96759.61;1702062;82;20114;-79
2021/06/22 05:03:37;;;;;;;;;;;;;;;27.92;49.16;96757.77;1713397;83;20105;-82
2021/06/22 05:06:04;;;;;;;;;;;;;;;27.84;47.05;96758.97;1693867;82;20130;-82
2021/06/22 05:08:30;;;;;;;;;;;;;;;28.10;45.50;96741.84;1691705;84;20119;-82
2021/06/22 05:10:57;;;;;;;;;;;;;;;28.21;46.17;96768.05;1698352;82;20121;-81
2021/06/22 05:13:23;;;;;;;;;;;;;;;28.12;45.42;96777.09;1693213;83;20416;-81
2021/06/22 05:15:49;;;;;;;;;;;;;;;27.57;46.05;96775.78;1691438;84;20147;-81
2021/06/22 05:18:15;;;;;;;;;;;;;;;27.64;45.85;96774.30;1706019;84;20387;-78
2021/06/22 05:20:42;;;;;;;;;;;;;;;27.77;46.86;96774.54;1716016;84;20109;-80
2021/06/22 05:23:08;;;;;;;;;;;;;;;28.00;46.65;96781.73;1699435;83;20111;-82
2021/06/22 05:25:34;;;;;;;;;;;;;;;28.01;46.44;96776.06;1710316;82;20121;-80
2021/06/22 05:28:00;;;;;;;;;;;;;;;27.85;46.74;96776.86;1689364;83;20417;-79
2021/06/22 05:30:26;;;;;;;;;;;;;;;27.60;46.62;96776.67;1708440;82;20150;-82
2021/06/22 05:32:53;;;;;;;;;;;;;;;27.95;47.54;96771.64;1702293;82;20427;-83
2021/06/22 05:35:19;;;;;;;;;;;;;;;28.65;46.80;96772.28;1699748;83;20395;-81
2021/06/22 05:37:46;;;;;;;;;;;;;;;29.42;44.88;96771.22;1689143;83;20104;-81
2021/06/22 05:40:12;;;;;;;;;;;;;;;30.01;44.11;96768.94;1715831;83;20117;-80
2021/06/22 05:42:38;;;;;;;;;;;;;;;30.47;40.76;96769.87;1690471;83;20170;-83
2021/06/22 05:45:05;;;;;;;;;;;;;;;30.38;43.08;96770.91;1682197;83;20379;-80
2021/06/22 05:47:32;;;;;;;;;;;;;;;30.10;42.04;96767.39;1715931;83;20109;-84
2021/06/22 05:49:59;;;;;;;;;;;;;;;30.21;43.39;96770.46;1709307;82;20175;-80
2021/06/22 05:52:25;;;;;;;;;;;;;;;30.02;42.28;96765.14;1709775;83;20395;-83
2021/06/22 05:54:53;;;;;;;;;;;;;;;30.41;42.48;96770.36;1698460;83;20103;-81
2021/06/22 05:57:19;;;;;;;;;;;;;;;30.38;41.26;96773.62;1687590;84;20170;-80
2021/06/22 05:59:45;;;;;;;;;;;;;;;30.41;41.90;96769.00;1689334;84;20109;-80
2021/06/22 06:02:11;;;;;;;;;;;;;;;30.70;39.77;96766.00;1693763;82;20120;-81
2021/06/22 06:04:39;;;;;;;;;;;;;;;30.98;40.59;96764.00;1716031;84;20121;-82
2021/06/22 06:07:06;;;;;;;;;;;;;;;30.78;39.60;96761.42;1709694;82;20109;-83
2021/06/22 06:09:32;;;;;;;;;;;;;;;30.77;41.73;96763.86;1716294;82;20186;-81
2021/06/22 06:12:00;;;;;;;;;;;;;;;30.68;42.00;96768.15;1715841;82;20129;-81
2021/06/22 06:14:26;;;;;;;;;;;;;;;30.82;41.02;96767.16;1713708;82;20120;-82
2021/06/22 06:16:52;;;;;;;;;;;;;;;31.05;41.71;96761.86;1712813;82;20101;-81
2021/06/22 06:19:19;;;;;;;;;;;;;;;31.40;41.58;96767.25;1713932;83;20431;-82
2021/06/22 06:21:47;;;;;;;;;;;;;;;31.78;39.35;96746.70;1713932;83;20157;-81
2021/06/22 06:24:13;;;;;;;;;;;;;;;32.14;40.30;96759.58;1720486;82;20144;-82
2021/06/22 06:26:57;;;;;;;;;;;;;;;32.17;38.50;96760.38;1704997;84;20124;-81
2021/06/22 06:30:02;;;;;;;;;;;;;;;32.53;40.53;96765.34;1709209;84;20395;-82
2021/06/22 06:31:47;;;;;;;;;;;;;;;32.58;39.25;96757.70;1700299;82;20468;-81
2021/06/22 06:34:13;;;;;;;;;;;;;;;32.69;37.81;96772.97;1715423;82;20398;-80
2021/06/22 06:36:41;;;;;;;;;;;;;;;33.05;36.86;96772.10;1716228;84;20121;-84
2021/06/22 06:39:07;;;;;;;;;;;;;;;32.92;38.42;96784.41;1716033;84;20153;-81
2021/06/22 06:41:33;;;;;;;;;;;;;;;32.37;37.11;96797.23;1717074;82;20086;-81
2021/06/22 06:44:00;;;;;;;;;;;;;;;32.02;38.75;96802.88;1721232;82;20141;-85
2021/06/22 06:46:27;;;;;;;;;;;;;;;31.92;39.00;96800.13;1716551;82;20126;-83
2021/06/22 06:48:53;;;;;;;;;;;;;;;31.99;38.59;96799.87;1716039;83;20114;-79
2021/06/22 06:51:20;;;;;;;;;;;;;;;31.71;39.58;96792.44;1715999;83;20402;-83
2021/06/22 06:53:47;;;;;;;;;;;;;;;32.02;39.49;96787.89;1714246;82;20143;-84
2021/06/22 06:56:13;;;;;;;;;;;;;;;32.37;38.29;96785.52;1716904;82;20107;-86
2021/06/22 06:58:39;;;;;;;;;;;;;;;32.60;37.45;96789.61;1714070;84;20233;-84
2021/06/22 07:01:05;;;;;;;;;;;;;;;33.03;37.94;96787.13;1715685;82;20138;-85
2021/06/22 07:03:33;;;;;;;;;;;;;;;33.31;38.57;96785.70;1710970;82;20149;-79
2021/06/22 07:06:00;;;;;;;;;;;;;;;33.15;37.54;96776.73;1717147;82;20122;-77
2021/06/22 07:08:26;;;;;;;;;;;;;;;33.21;38.37;96784.37;1715664;83;20086;-80
2021/06/22 07:10:53;;;;;;;;;;;;;;;33.62;37.34;96785.06;1702058;84;20128;-82
2021/06/22 07:13:19;;;;;;;;;;;;;;;33.77;36.71;96771.05;1707212;84;20117;-80
2021/06/22 07:15:46;;;;;;;;;;;;;;;33.77;37.25;96771.05;1713298;82;20117;-76
2021/06/22 07:18:13;;;;;;;;;;;;;;;33.98;37.96;96777.80;1695547;84;20137;-81
2021/06/22 07:20:39;;;;;;;;;;;;;;;33.79;36.77;96775.69;1688078;84;20162;-80
2021/06/22 07:23:05;;;;;;;;;;;;;;;33.16;38.08;96768.81;1689798;84;20103;-79
2021/06/22 07:25:32;;;;;;;;;;;;;;;33.44;36.67;96769.30;1687770;85;20433;-76
2021/06/22 07:27:58;;;;;;;;;;;;;;;33.74;36.70;96763.40;1689570;84;20100;-81
2021/06/22 07:30:26;;;;;;;;;;;;;;;33.36;36.61;96761.13;1687688;84;20128;-80
2021/06/22 07:32:53;;;;;;;;;;;;;;;32.85;38.36;96760.13;1687805;85;20136;-82
2021/06/22 07:35:19;;;;;;;;;;;;;;;33.04;38.27;96760.11;1689479;84;20100;-81
2021/06/22 07:37:46;;;;;;;;;;;;;;;32.79;38.16;96759.08;1689744;84;20107;-78
2021/06/22 07:40:13;;;;;;;;;;;;;;;32.79;38.48;96757.15;1694955;82;20121;-79
2021/06/22 07:42:39;;;;;;;;;;;;;;;32.27;39.03;96759.05;1695933;84;20086;-80
2021/06/22 07:45:06;;;;;;;;;;;;;;;32.21;39.28;96758.20;1698636;84;20108;-77
2021/06/22 07:47:32;;;;;;;;;;;;;;;31.66;39.57;96761.89;1696842;82;20104;-80
2021/06/22 07:49:59;;;;;;;;;;;;;;;31.31;40.72;96757.95;1690935;84;20108;-76
2021/06/22 07:52:25;;;;;;;;;;;;;;;31.51;40.64;96759.93;1706702;82;20176;-80
2021/06/22 07:54:51;;;;;;;;;;;;;;;31.78;39.99;96756.23;1689632;84;20120;-79
2021/06/22 07:57:18;;;;;;;;;;;;;;;32.04;40.41;96755.75;1697678;82;20406;-79
2021/06/22 07:59:44;;;;;;;;;;;;;;;32.42;40.27;96760.97;1708200;84;20101;-76
2021/06/22 08:02:10;;;;;;;;;;;;;;;32.81;39.41;96752.77;1722357;82;20121;-80
2021/06/22 08:04:36;;;;;;;;;;;;;;;32.78;38.26;96753.31;1730067;83;20125;-81
2021/06/22 08:07:03;;;;;;;;;;;;;;;32.81;38.80;96754.14;1731509;83;20116;-78
2021/06/22 08:09:29;;;;;;;;;;;;;;;32.99;39.31;96754.11;1708899;83;20102;-80
2021/06/22 08:11:55;;;;;;;;;;;;;;;33.31;38.40;96755.11;1698831;83;20393;-77
2021/06/22 08:14:21;;;;;;;;;;;;;;;33.60;38.09;96748.17;1677648;85;20140;-79
2021/06/22 08:16:48;;;;;;;;;;;;;;;33.96;38.09;96747.19;1682143;83;20142;-77
2021/06/22 08:19:14;;;;;;;;;;;;;;;34.25;37.25;96742.61;1689312;84;20173;-81
2021/06/22 08:21:40;;;;;;;;;;;;;;;34.44;37.54;96741.11;1702679;84;20138;-78
2021/06/22 08:24:07;;;;;;;;;;;;;;;34.46;36.99;96743.02;1705528;83;20134;-77
2021/06/22 08:26:33;;;;;;;;;;;;;;;34.42;36.63;96744.70;1705766;83;20095;-82
2021/06/22 08:28:59;;;;;;;;;;;;;;;34.44;36.61;96742.47;1693467;84;20112;-83
2021/06/22 08:31:25;;;;;;;;;;;;;;;34.42;36.71;96753.72;1677455;84;20385;-80
2021/06/22 08:33:52;;;;;;;;;;;;;;;33.87;37.55;96749.72;1683876;83;20100;-83
2021/06/22 08:36:18;;;;;;;;;;;;;;;33.44;37.13;96735.16;1704253;83;20165;-82
2021/06/22 08:38:44;;;;;;;;;;;;;;;33.57;38.06;96754.22;1701528;84;20099;-81
2021/06/22 08:41:13;;;;;;;;;;;;;;;33.47;37.46;96756.43;1699788;84;20150;-84
2021/06/22 08:43:40;;;;;;;;;;;;;;;33.35;36.69;96745.83;1699872;84;20110;-84
2021/06/22 08:46:08;;;;;;;;;;;;;;;33.44;36.82;96750.18;1699781;83;20102;-84
2021/06/22 08:48:36;;;;;;;;;;;;;;;33.61;37.56;96749.81;1699627;84;20110;-78
2021/06/22 08:51:02;;;;;;;;;;;;;;;33.76;37.83;96747.02;1699653;84;20154;-80
2021/06/22 08:53:29;;;;;;;;;;;;;;;33.72;36.90;96755.49;1699353;84;20418;-82
2021/06/22 08:55:55;;;;;;;;;;;;;;;33.27;37.73;96759.48;1699515;84;20106;-82
2021/06/22 08:58:21;;;;;;;;;;;;;;;32.82;38.43;96761.23;1699487;83;20464;-80
2021/06/22 09:00:50;;;;;;;;;;;;;;;32.30;39.04;96757.16;1699509;83;20447;-80
2021/06/22 09:03:26;;;;;;;;;;;;;;;31.95;39.58;96770.99;1699555;84;20114;-80
2021/06/22 09:05:59;;;;;;;;;;;;;;;31.45;40.15;96766.45;1699635;84;20154;-80
2021/06/22 09:08:27;;;;;;;;;;;;;;;31.21;40.29;96770.95;1699518;84;20098;-79
2021/06/22 09:10:57;;;;;;;;;;;;;;;31.11;40.70;96758.66;1699696;84;20110;-79
2021/06/22 09:13:25;;;;;;;;;;;;;;;31.38;40.44;96768.58;1693671;84;20451;-79
2021/06/22 09:15:55;;;;;;;;;;;;;;;31.74;39.80;96771.48;1704320;84;20114;-84
2021/06/22 09:18:32;;;;;;;;;;;;;;;31.75;39.39;96769.84;1704247;83;20110;-86
2021/06/22 09:21:04;;;;;;;;;;;;;;;31.66;38.34;96770.06;1704101;84;20178;-84
2021/06/22 09:23:33;;;;;;;;;;;;;;;31.38;38.55;96769.94;1704209;84;20478;-81
2021/06/22 09:25:59;;;;;;;;;;;;;;;30.92;40.62;96763.70;1704236;83;20155;-82
2021/06/22 09:28:28;;;;;;;;;;;;;;;30.95;40.24;96761.83;1704336;83;20114;-85
2021/06/22 09:30:59;;;;;;;;;;;;;;;30.73;39.85;96768.72;1704050;83;20114;-84
2021/06/22 09:33:31;;;;;;;;;;;;;;;30.62;40.39;96778.72;1704332;83;20142;-82
2021/06/22 09:36:07;;;;;;;;;;;;;;;30.58;40.69;96776.26;1696105;84;20133;-80
2021/06/22 09:38:37;;;;;;;;;;;;;;;30.64;40.82;96782.81;1657883;87;20109;-82
2021/06/22 09:41:07;;;;;;;;;;;;;;;30.56;41.63;96772.42;1657387;86;20176;-83
2021/06/22 09:43:39;;;;;;;;;;;;;;;30.63;41.89;96779.00;1686333;84;20110;-79
2021/06/22 09:46:07;;;;;;;;;;;;;;;30.66;41.81;96775.22;1679613;83;20132;-81
2021/06/22 09:48:41;;;;;;;;;;;;;;;30.77;41.68;96777.46;1684551;84;20106;-78
2021/06/22 09:51:07;;;;;;;;;;;;;;;30.75;41.16;96785.09;1704349;84;20102;-82
2021/06/22 09:53:34;;;;;;;;;;;;;;;30.25;42.35;96769.95;1704097;83;20181;-80
2021/06/22 09:56:00;;;;;;;;;;;;;;;30.22;42.60;96774.83;1695460;84;20136;-83
2021/06/22 09:58:41;;;;;;;;;;;;;;;30.14;42.96;96767.14;1722175;83;20133;-81
2021/06/22 10:01:31;;;;;;;;;;;;;;;29.96;43.15;96763.43;1695872;83;20185;-83
2021/06/22 10:04:13;;;;;;;;;;;;;;;29.97;43.58;96761.84;1692481;83;20404;-80
2021/06/22 10:06:40;;;;;;;;;;;;;;;29.94;43.16;96762.34;1712500;83;20162;-79
2021/06/22 10:09:06;;;;;;;;;;;;;;;29.85;43.13;96760.58;1719041;82;20224;-77
2021/06/22 10:11:38;;;;;;;;;;;;;;;29.81;42.81;96757.27;1715284;82;20165;-81
2021/06/22 10:14:10;;;;;;;;;;;;;;;29.90;43.11;96751.14;1715186;82;20146;-81
2021/06/22 10:16:37;;;;;;;;;;;;;;;30.03;42.94;96756.73;1713593;82;20189;-80
2021/06/22 10:19:10;;;;;;;;;;;;;;;30.04;41.80;96748.86;1713167;82;20397;-80
2021/06/22 10:21:36;;;;;;;;;;;;;;;30.08;41.89;96754.59;1724039;82;20173;-82
2021/06/22 10:24:03;;;;;;;;;;;;;;;30.12;41.37;96748.11;1732892;82;20131;-83
2021/06/22 10:26:31;;;;;;;;;;;;;;;30.31;41.22;96751.25;1739711;82;20103;-80
2021/06/22 10:29:02;;;;;;;;;;;;;;;30.47;39.86;96754.39;1737728;82;20103;-82
2021/06/22 10:31:30;;;;;;;;;;;;;;;30.65;40.68;96745.58;1721985;82;20130;-80
2021/06/22 10:33:57;;;;;;;;;;;;;;;30.78;40.44;96744.30;1732242;82;20413;-79
2021/06/22 10:36:30;;;;;;;;;;;;;;;30.76;40.60;96748.66;1713171;82;20142;-79
2021/06/22 10:39:09;;;;;;;;;;;;;;;30.53;40.66;96746.58;1730638;82;20227;-82
2021/06/22 10:41:39;;;;;;;;;;;;;;;30.38;40.95;96743.16;1726047;82;20137;-79
2021/06/22 10:44:27;;;;;;;;;;;;;;;30.31;41.11;96743.09;1708651;84;20434;-80
2021/06/22 10:47:17;;;;;;;;;;;;;;;30.32;40.84;96738.78;1696902;82;20154;-80
2021/06/22 10:50:19;;;;;;;;;;;;;;;30.43;41.00;96740.22;1703269;84;20140;-82
2021/06/22 10:52:54;;;;;;;;;;;;;;;30.67;40.55;96739.34;1645957;87;20107;-80
2021/06/22 10:55:31;;;;;;;;;;;;;;;30.87;39.80;96741.36;1647015;86;20106;-81
2021/06/22 10:58:13;;;;;;;;;;;;;;;30.99;39.85;96731.11;1648462;86;20115;-83
2021/06/22 11:00:49;;;;;;;;;;;;;;;31.03;39.22;96728.67;1660154;85;20206;-83
2021/06/22 11:03:22;;;;;;;;;;;;;;;31.10;39.38;96734.72;1659479;85;20102;-83
2021/06/22 11:05:51;;;;;;;;;;;;;;;31.20;39.03;96737.21;1651831;84;20427;-78
2021/06/22 11:08:37;;;;;;;;;;;;;;;31.22;38.51;96735.86;1654199;85;20430;-79
2021/06/22 11:11:10;;;;;;;;;;;;;;;31.34;38.83;96735.62;1654921;85;20473;-79
2021/06/22 11:13:46;;;;;;;;;;;;;;;31.46;38.73;96734.86;1656408;85;20190;-78
2021/06/22 11:16:22;;;;;;;;;;;;;;;31.54;38.14;96731.34;1656788;85;20184;-78
2021/06/22 11:18:55;;;;;;;;;;;;;;;31.58;37.53;96743.34;1657638;86;20157;-78
2021/06/22 11:21:28;;;;;;;;;;;;;;;31.68;37.54;96738.49;1658992;85;20110;-79
2021/06/22 11:24:14;;;;;;;;;;;;;;;31.72;38.59;96743.69;1656246;85;20149;-78
2021/06/22 11:26:52;;;;;;;;;;;;;;;31.70;37.95;96734.41;1679984;85;20425;-80
2021/06/22 11:29:25;;;;;;;;;;;;;;;31.78;37.33;96734.44;1670107;84;20144;-78
2021/06/22 11:31:56;;;;;;;;;;;;;;;31.78;38.46;96738.52;1659072;85;20130;-82
2021/06/22 11:34:25;;;;;;;;;;;;;;;31.71;37.43;96740.69;1663299;85;20180;-81
2021/06/22 11:36:56;;;;;;;;;;;;;;;31.50;37.73;96744.67;1665253;85;20129;-80
2021/06/22 11:39:25;;;;;;;;;;;;;;;31.43;38.36;96737.30;1659221;85;20156;-80
2021/06/22 11:42:13;;;;;;;;;;;;;;;31.51;38.45;96734.62;1636307;87;20444;-83
2021/06/22 11:44:48;;;;;;;;;;;;;;;31.61;37.94;96738.19;1658618;85;20438;-80
2021/06/22 11:47:20;;;;;;;;;;;;;;;31.80;38.48;96739.61;1654378;85;20442;-84
2021/06/22 11:49:50;;;;;;;;;;;;;;;31.91;38.57;96735.29;1659603;86;20157;-79
2021/06/22 11:52:19;;;;;;;;;;;;;;;32.09;38.31;96735.86;1651549;85;20416;-83
2021/06/22 11:54:55;;;;;;;;;;;;;;;32.17;37.85;96729.86;1652744;87;20460;-80
2021/06/22 11:57:25;;;;;;;;;;;;;;;32.20;37.57;96728.49;1647692;85;20126;-79
2021/06/22 11:59:51;;;;;;;;;;;;;;;32.22;37.39;96735.30;1653897;86;20448;-78
2021/06/22 12:02:18;;;;;;;;;;;;;;;32.18;37.00;96730.66;1652395;85;20424;-83
2021/06/22 12:04:45;;;;;;;;;;;;;;;32.25;37.49;96724.42;1662338;85;20144;-79
2021/06/22 12:07:12;;;;;;;;;;;;;;;32.39;36.60;96723.33;1654556;85;20112;-80
2021/06/22 12:09:44;;;;;;;;;;;;;;;32.50;35.93;96724.16;1650592;86;20129;-81
2021/06/22 12:12:10;;;;;;;;;;;;;;;32.63;35.87;96726.31;1659044;86;20157;-81
2021/06/22 12:14:44;;;;;;;;;;;;;;;32.64;35.44;96712.95;1669750;85;20199;-80
2021/06/22 12:17:20;;;;;;;;;;;;;;;32.71;36.07;96714.84;1684657;85;20151;-81
2021/06/22 12:19:47;;;;;;;;;;;;;;;32.80;36.25;96716.50;1641757;86;20125;-82
2021/06/22 12:22:14;;;;;;;;;;;;;;;32.78;34.56;96714.59;1661383;86;20125;-81
2021/06/22 12:24:43;;;;;;;;;;;;;;;32.74;35.26;96712.66;1661551;85;20129;-81
2021/06/22 12:27:10;;;;;;;;;;;;;;;32.76;35.68;96710.48;1661004;85;20442;-79
2021/06/22 12:29:39;;;;;;;;;;;;;;;32.85;35.08;96711.02;1659896;85;20118;-80
2021/06/22 12:32:10;;;;;;;;;;;;;;;32.93;34.86;96711.00;1659954;86;20107;-80
2021/06/22 12:34:41;;;;;;;;;;;;;;;32.95;35.43;96711.55;1661456;85;20161;-80
2021/06/22 12:37:21;;;;;;;;;;;;;;;32.93;34.57;96706.91;1659494;86;20233;-79
2021/06/22 12:39:49;;;;;;;;;;;;;;;33.03;34.32;96702.52;1651494;86;20439;-78
2021/06/22 12:42:21;;;;;;;;;;;;;;;33.11;34.51;96703.30;1659076;85;20428;-79
2021/06/22 12:44:48;;;;;;;;;;;;;;;33.24;34.23;96711.44;1659441;86;20422;-79
2021/06/22 12:47:15;;;;;;;;;;;;;;;33.32;33.16;96704.89;1661292;86;20149;-81
2021/06/22 12:49:41;;;;;;;;;;;;;;;33.42;34.39;96704.58;1627003;86;20139;-81
2021/06/22 12:52:08;;;;;;;;;;;;;;;33.46;34.24;96706.47;1658887;85;20135;-81
2021/06/22 12:54:36;;;;;;;;;;;;;;;33.56;34.09;96704.22;1646705;85;20422;-79